This is the latest recevied weather packets stored in our database for station/object N8JE-13. If no packets are shown the sender has not sent any weather packets the latest 1 day(s).
| Time | Temp. | Humidity | Pressure | Rain* | Wind** | Luminosity | Snow |
|---|---|---|---|---|---|---|---|
| 1778022651 | 15° C | 94% | 1006.2 hPa | 5.59 mm | 1.34 m/s, 240° | - | - |
| 1778022351 | 15° C | 94% | 1006.2 hPa | 5.59 mm | 1.34 m/s, 202° | - | - |
| 1778022051 | 15° C | 94% | 1006.4 hPa | 5.08 mm | 0.89 m/s, 242° | - | - |
| 1778021751 | 15° C | 94% | 1006.4 hPa | 4.32 mm | 2.24 m/s, 220° | - | - |
| 1778021451 | 15° C | 94% | 1006.5 hPa | 3.56 mm | 0.89 m/s, 218° | - | - |
| 1778021151 | 15° C | 94% | 1006.6 hPa | 3.3 mm | 0.45 m/s, 249° | - | - |
| 1778020851 | 15° C | 94% | 1006.5 hPa | 3.05 mm | 1.34 m/s, 221° | - | - |
| 1778020550 | 15° C | 94% | 1006.6 hPa | 2.29 mm | 0.89 m/s, 208° | - | - |
| 1778020252 | 15° C | 94% | 1006.6 hPa | 1.52 mm | 2.24 m/s, 233° | - | - |
| 1778019951 | 15° C | 94% | 1006.6 hPa | 1.52 mm | 2.24 m/s, 208° | - | - |
| 1778019651 | 15° C | 93% | 1006.7 hPa | 1.02 mm | 1.34 m/s, 247° | - | - |
| 1778019351 | 15.56° C | 93% | 1006.7 hPa | 0.76 mm | 0.45 m/s, 223° | - | - |
| 1778019052 | 15.56° C | 93% | 1006.8 hPa | 0.51 mm | 0 m/s | - | - |
| 1778018751 | 15° C | 93% | 1006.8 hPa | 0.51 mm | 0.89 m/s, 225° | - | - |
| 1778018451 | 15.56° C | 93% | 1006.8 hPa | 0.51 mm | 0.89 m/s, 241° | - | - |
| 1778018152 | 15.56° C | 93% | 1006.7 hPa | 0.76 mm | 0.45 m/s, 233° | - | - |
| 1778017852 | 15° C | 93% | 1006.7 hPa | 0.76 mm | 0 m/s | - | - |
| 1778017552 | 15° C | 92% | 1006.7 hPa | 1.02 mm | 1.34 m/s, 233° | - | - |
| 1778017250 | 15.56° C | 92% | 1006.6 hPa | 1.27 mm | 0.89 m/s, 260° | - | - |
| 1778016952 | 15.56° C | 92% | 1006.6 hPa | 1.52 mm | 2.24 m/s, 256° | - | - |
| 1778016652 | 15.56° C | 92% | 1006.5 hPa | 1.78 mm | 0.89 m/s, 217° | - | - |
| 1778016351 | 15.56° C | 92% | 1006.6 hPa | 2.03 mm | 0.89 m/s, 221° | - | - |
| 1778016051 | 15.56° C | 92% | 1006.6 hPa | 2.54 mm | 0.45 m/s, 243° | - | - |
| 1778015751 | 15.56° C | 91% | 1006.6 hPa | 3.56 mm | 2.24 m/s, 241° | - | - |
| 1778015451 | 15.56° C | 91% | 1006.5 hPa | 4.32 mm | 2.24 m/s, 234° | - | - |
* Rain latest hour (hover to see other rain measurements)
** Current wind speed in m/s (hover to see current wind gust speed)